createdAt,value
2018-02-24T00:00:10.769Z,1.87
2018-02-24T00:01:10.770Z,1.32
2018-02-24T00:02:10.774Z,1.43
2018-02-24T00:03:10.794Z,1.55
2018-02-24T00:04:10.800Z,1.08
2018-02-24T00:05:10.860Z,1.29
2018-02-24T00:06:10.836Z,1.10
2018-02-24T00:07:10.838Z,1.25
2018-02-24T00:08:10.846Z,1.50
2018-02-24T00:09:10.860Z,1.36
2018-02-24T00:10:10.872Z,1.58
2018-02-24T00:11:10.880Z,1.15
2018-02-24T00:12:10.891Z,1.26
2018-02-24T00:13:10.903Z,1.29
2018-02-24T00:14:10.917Z,1.06
2018-02-24T00:15:10.925Z,1.58
2018-02-24T00:16:10.935Z,1.76
2018-02-24T00:17:10.952Z,1.40
2018-02-24T00:18:10.959Z,1.51
2018-02-24T00:19:10.968Z,1.50
2018-02-24T00:20:10.981Z,1.57
2018-02-24T00:21:10.989Z,1.64
2018-02-24T00:22:11.004Z,1.46
2018-02-24T00:23:11.009Z,1.19
2018-02-24T00:24:11.039Z,0.97
2018-02-24T00:25:11.033Z,1.36
2018-02-24T00:26:11.049Z,1.10
2018-02-24T00:27:11.058Z,1.32
2018-02-24T00:28:11.067Z,1.22
2018-02-24T00:29:11.079Z,1.12
2018-02-24T00:30:11.089Z,0.76
2018-02-24T00:31:11.103Z,1.19
2018-02-24T00:32:11.113Z,1.32
2018-02-24T00:33:11.122Z,1.54
2018-02-24T00:34:11.133Z,1.34
2018-02-24T00:35:11.142Z,0.92
2018-02-24T00:36:11.164Z,0.71
2018-02-24T00:37:11.166Z,0.90
2018-02-24T00:38:11.176Z,0.72
2018-02-24T00:39:11.187Z,0.76
2018-02-24T00:40:11.198Z,1.03
2018-02-24T00:41:11.208Z,1.37
2018-02-24T00:42:11.224Z,1.08
2018-02-24T00:43:11.231Z,0.80
2018-02-24T00:44:11.240Z,0.71
2018-02-24T00:45:11.252Z,0.67
2018-02-24T00:46:11.260Z,0.76
2018-02-24T00:47:11.275Z,0.64
2018-02-24T00:48:11.286Z,0.75
2018-02-24T00:49:11.310Z,0.75
2018-02-24T00:50:11.341Z,0.75
2018-02-24T00:51:11.320Z,1.07
2018-02-24T00:52:11.333Z,1.06
2018-02-24T00:53:11.339Z,0.94
2018-02-24T00:54:11.353Z,1.15
2018-02-24T00:55:11.362Z,0.67
2018-02-24T00:56:11.374Z,1.03
2018-02-24T00:57:11.384Z,0.90
2018-02-24T00:58:11.394Z,0.76
2018-02-24T00:59:11.407Z,0.49
2018-02-24T01:00:11.418Z,0.76
2018-02-24T01:01:11.428Z,0.76
2018-02-24T01:02:11.441Z,0.57
2018-02-24T01:03:11.451Z,0.67
2018-02-24T01:04:11.474Z,0.64
2018-02-24T01:05:11.472Z,0.67
2018-02-24T01:06:11.485Z,0.62
2018-02-24T01:07:11.495Z,0.42
2018-02-24T01:08:11.505Z,0.57
2018-02-24T01:09:11.518Z,0.79
2018-02-24T01:10:11.526Z,0.86
2018-02-24T01:11:11.538Z,0.57
2018-02-24T01:12:11.550Z,0.85
2018-02-24T01:13:11.558Z,0.96
2018-02-24T01:14:11.574Z,0.97
2018-02-24T01:15:11.581Z,0.96
2018-02-24T01:16:11.592Z,0.83
2018-02-24T01:17:11.602Z,1.16
2018-02-24T01:18:11.615Z,1.03
2018-02-24T01:19:11.624Z,0.51
2018-02-24T01:20:11.638Z,0.72
2018-02-24T01:21:11.645Z,0.71
2018-02-24T01:22:11.658Z,0.86
2018-02-24T01:23:11.667Z,0.27
2018-02-24T01:24:11.684Z,0.23
2018-02-24T01:25:11.703Z,0.70
2018-02-24T01:26:11.695Z,0.61
2018-02-24T01:27:11.704Z,0.51
2018-02-24T01:28:11.721Z,0.43
2018-02-24T01:29:11.729Z,0.45
2018-02-24T01:30:11.748Z,0.33
2018-02-24T01:31:11.757Z,0.24
2018-02-24T01:32:11.763Z,0.34
2018-02-24T01:33:11.789Z,0.76
2018-02-24T01:34:11.787Z,0.67
2018-02-24T01:35:11.801Z,0.75
2018-02-24T01:36:11.803Z,0.70
2018-02-24T01:37:11.818Z,0.39
2018-02-24T01:38:11.831Z,0.25
2018-02-24T01:39:11.836Z,0.46
2018-02-24T01:40:11.846Z,0.49
2018-02-24T01:41:11.858Z,0.36
2018-02-24T01:42:11.870Z,0.12
2018-02-24T01:43:11.885Z,0.16
2018-02-24T01:44:11.891Z,0.75
2018-02-24T01:45:11.929Z,0.94
2018-02-24T01:46:11.910Z,0.65
2018-02-24T01:47:11.923Z,0.48
2018-02-24T01:48:11.931Z,0.49
2018-02-24T01:49:11.938Z,0.64
2018-02-24T01:50:11.947Z,0.46
2018-02-24T01:51:11.958Z,0.27
2018-02-24T01:52:11.967Z,0.62
2018-02-24T01:53:11.981Z,0.33
2018-02-24T01:54:11.992Z,0.36
2018-02-24T01:55:12.000Z,0.27
2018-02-24T01:56:12.054Z,0.30
2018-02-24T01:57:12.028Z,0.43
2018-02-24T01:58:12.035Z,0.43
2018-02-24T01:59:12.052Z,0.62
2018-02-24T02:00:12.056Z,0.75
2018-02-24T02:01:12.062Z,0.31
2018-02-24T02:02:12.074Z,0.31
2018-02-24T02:03:12.090Z,0.27
2018-02-24T02:04:12.097Z,0.09
2018-02-24T02:05:12.104Z,0.31
2018-02-24T02:06:12.116Z,0.21
2018-02-24T02:07:12.123Z,0.60
2018-02-24T02:08:12.136Z,0.65
2018-02-24T02:09:12.147Z,0.30
2018-02-24T02:10:12.157Z,0.31
2018-02-24T02:11:12.166Z,0.45
2018-02-24T02:12:12.180Z,0.18
2018-02-24T02:13:12.189Z,0.46
2018-02-24T02:14:12.204Z,0.39
2018-02-24T02:15:12.211Z,0.27
2018-02-24T02:16:12.221Z,-0.11
2018-02-24T02:17:12.229Z,0.06
2018-02-24T02:18:12.240Z,0.16
2018-02-24T02:19:12.249Z,0.02
2018-02-24T02:20:12.269Z,-0.09
2018-02-24T02:21:12.267Z,0.20
2018-02-24T02:22:12.280Z,0.20
2018-02-24T02:23:12.291Z,0.09
2018-02-24T02:24:12.303Z,0.45
2018-02-24T02:25:12.317Z,0.61
2018-02-24T02:26:12.337Z,0.70
2018-02-24T02:27:12.332Z,0.70
2018-02-24T02:28:12.344Z,0.20
2018-02-24T02:29:12.355Z,-0.05
2018-02-24T02:30:12.364Z,-0.18
2018-02-24T02:31:12.372Z,-0.19
2018-02-24T02:32:12.387Z,-0.19
2018-02-24T02:33:12.394Z,0.18
2018-02-24T02:34:12.408Z,0.18
2018-02-24T02:35:12.416Z,0.02
2018-02-24T02:36:12.435Z,-0.05
2018-02-24T02:37:12.437Z,-0.05
2018-02-24T02:38:12.442Z,-0.23
2018-02-24T02:39:12.457Z,-0.11
2018-02-24T02:40:12.468Z,-0.12
2018-02-24T02:41:12.492Z,-0.09
2018-02-24T02:42:12.488Z,-0.16
2018-02-24T02:43:12.499Z,-0.05
2018-02-24T02:44:12.512Z,-0.22
2018-02-24T02:45:12.519Z,-0.09
2018-02-24T02:46:12.528Z,-0.22
2018-02-24T02:47:12.548Z,0.21
2018-02-24T02:48:12.553Z,0.18
2018-02-24T02:49:12.560Z,0.03
2018-02-24T02:50:12.572Z,0.00
2018-02-24T02:51:12.582Z,0.06
2018-02-24T02:52:12.591Z,0.12
2018-02-24T02:53:12.604Z,-0.08
2018-02-24T02:54:12.613Z,-0.41
2018-02-24T02:55:12.623Z,-0.05
2018-02-24T02:56:12.639Z,-0.19
2018-02-24T02:57:12.642Z,-0.16
2018-02-24T02:58:12.651Z,-0.29
2018-02-24T02:59:12.664Z,-0.04
2018-02-24T03:00:12.675Z,-0.01
2018-02-24T03:01:12.684Z,0.07
2018-02-24T03:02:12.688Z,0.02
2018-02-24T03:03:12.706Z,-0.24
2018-02-24T03:04:12.716Z,-0.19
2018-02-24T03:05:12.721Z,-0.13
2018-02-24T03:06:12.730Z,-0.52
2018-02-24T03:07:12.748Z,-0.06
2018-02-24T03:08:12.754Z,-0.23
2018-02-24T03:09:12.763Z,-0.30
2018-02-24T03:10:12.774Z,-0.11
2018-02-24T03:11:12.783Z,-0.23
2018-02-24T03:12:12.791Z,-0.22
2018-02-24T03:13:12.796Z,-0.34
2018-02-24T03:14:12.817Z,-0.42
2018-02-24T03:15:12.823Z,-0.23
2018-02-24T03:16:12.831Z,-0.45
2018-02-24T03:17:12.849Z,-0.44
2018-02-24T03:18:12.862Z,-0.62
2018-02-24T03:19:12.863Z,-0.78
2018-02-24T03:20:12.872Z,-0.62
2018-02-24T03:21:12.882Z,-0.37
2018-02-24T03:22:12.904Z,-0.68
2018-02-24T03:23:12.902Z,-0.73
2018-02-24T03:24:12.912Z,-0.63
2018-02-24T03:25:12.922Z,-0.54
2018-02-24T03:26:12.929Z,-0.11
2018-02-24T03:27:12.954Z,-0.04
2018-02-24T03:28:12.953Z,-0.60
2018-02-24T03:29:12.956Z,-0.37
2018-02-24T03:30:12.971Z,-0.48
2018-02-24T03:31:12.977Z,-0.37
2018-02-24T03:32:12.994Z,-0.37
2018-02-24T03:33:13.003Z,-0.41
2018-02-24T03:34:13.010Z,-0.44
2018-02-24T03:35:13.022Z,-0.60
2018-02-24T03:36:13.031Z,-0.45
2018-02-24T03:37:13.042Z,-0.34
2018-02-24T03:38:13.045Z,-0.16
2018-02-24T03:39:13.108Z,-0.31
2018-02-24T03:40:13.070Z,-0.68
2018-02-24T03:41:13.081Z,-0.59
2018-02-24T03:42:13.090Z,-0.08
2018-02-24T03:43:13.102Z,0.02
2018-02-24T03:44:13.114Z,-0.18
2018-02-24T03:45:13.121Z,-0.34
2018-02-24T03:46:13.130Z,-0.60
2018-02-24T03:47:13.144Z,-0.52
2018-02-24T03:48:13.150Z,-0.45
2018-02-24T03:49:13.159Z,-0.37
2018-02-24T03:50:13.171Z,-0.75
2018-02-24T03:51:13.183Z,-0.92
2018-02-24T03:52:13.191Z,-0.84
2018-02-24T03:53:13.202Z,-0.50
2018-02-24T03:54:13.206Z,-0.81
2018-02-24T03:55:13.217Z,-0.51
2018-02-24T03:56:13.236Z,-0.13
2018-02-24T03:57:13.237Z,0.02
2018-02-24T03:58:13.303Z,-0.30
2018-02-24T03:59:13.252Z,-0.60
2018-02-24T04:00:13.273Z,-0.81
2018-02-24T04:01:13.277Z,-0.89
2018-02-24T04:02:13.285Z,-0.57
2018-02-24T04:03:13.299Z,-0.72
2018-02-24T04:04:13.310Z,-0.63
2018-02-24T04:05:13.332Z,-0.42
2018-02-24T04:06:13.333Z,-0.65
2018-02-24T04:07:13.333Z,-0.86
2018-02-24T04:08:13.362Z,-0.78
2018-02-24T04:09:13.359Z,-0.65
2018-02-24T04:10:13.375Z,-0.31
2018-02-24T04:11:13.379Z,-0.36
2018-02-24T04:12:13.384Z,-0.68
2018-02-24T04:13:13.398Z,-0.87
2018-02-24T04:14:13.402Z,-0.66
2018-02-24T04:15:13.417Z,-0.36
2018-02-24T04:16:13.424Z,-0.48
2018-02-24T04:17:13.462Z,-0.57
2018-02-24T04:18:13.562Z,-0.66
2018-02-24T04:19:13.451Z,-0.33
2018-02-24T04:20:13.459Z,-0.48
2018-02-24T04:21:13.473Z,-0.57
2018-02-24T04:22:13.483Z,-0.65
2018-02-24T04:23:13.494Z,-0.63
2018-02-24T04:24:13.502Z,-0.45
2018-02-24T04:25:13.510Z,-0.63
2018-02-24T04:26:13.520Z,-0.44
2018-02-24T04:27:13.537Z,-0.45
2018-02-24T04:28:13.541Z,-0.23
2018-02-24T04:29:13.549Z,-0.33
2018-02-24T04:30:13.566Z,-0.75
2018-02-24T04:31:13.567Z,-0.80
2018-02-24T04:32:13.580Z,-0.95
2018-02-24T04:33:13.587Z,-0.80
2018-02-24T04:34:13.598Z,-0.99
2018-02-24T04:35:13.612Z,-0.70
2018-02-24T04:36:13.618Z,-0.86
2018-02-24T04:37:13.630Z,-1.05
2018-02-24T04:38:13.634Z,-0.94
2018-02-24T04:39:13.647Z,-0.75
2018-02-24T04:40:13.656Z,-0.97
2018-02-24T04:41:13.664Z,-0.86
2018-02-24T04:42:13.672Z,-0.83
2018-02-24T04:43:13.687Z,-0.73
2018-02-24T04:44:13.696Z,-1.07
2018-02-24T04:45:13.703Z,-0.92
2018-02-24T04:46:13.713Z,-0.78
2018-02-24T04:47:13.721Z,-0.95
2018-02-24T04:48:13.733Z,-0.91
2018-02-24T04:49:13.740Z,-0.73
2018-02-24T04:50:13.753Z,-1.21
2018-02-24T04:51:13.784Z,-0.83
2018-02-24T04:52:13.774Z,-1.12
2018-02-24T04:53:13.780Z,-1.23
2018-02-24T04:54:13.789Z,-1.24
2018-02-24T04:55:13.795Z,-0.78
2018-02-24T04:56:13.806Z,-0.94
2018-02-24T04:57:13.819Z,-1.17
2018-02-24T04:58:13.824Z,-1.21
2018-02-24T04:59:13.831Z,-1.02
2018-02-24T05:00:13.842Z,-1.30
2018-02-24T05:01:13.851Z,-1.24
2018-02-24T05:02:13.863Z,-0.69
2018-02-24T05:03:13.865Z,-0.72
2018-02-24T05:04:13.883Z,-1.35
2018-02-24T05:05:13.899Z,-1.12
2018-02-24T05:06:13.913Z,-1.02
2018-02-24T05:07:13.911Z,-1.09
2018-02-24T05:08:13.921Z,-0.87
2018-02-24T05:09:13.931Z,-0.62
2018-02-24T05:10:13.936Z,-0.94
2018-02-24T05:11:13.944Z,-1.00
2018-02-24T05:12:13.961Z,-1.05
2018-02-24T05:13:13.965Z,-1.21
2018-02-24T05:14:13.973Z,-1.38
2018-02-24T05:15:13.979Z,-1.38
2018-02-24T05:16:13.991Z,-1.38
2018-02-24T05:17:13.998Z,-1.36
2018-02-24T05:18:14.015Z,-1.43
2018-02-24T05:19:14.022Z,-1.49
2018-02-24T05:20:14.033Z,-1.39
2018-02-24T05:21:14.040Z,-1.23
2018-02-24T05:22:14.052Z,-1.03
2018-02-24T05:23:14.060Z,-1.20
2018-02-24T05:24:14.076Z,-1.38
2018-02-24T05:25:14.086Z,-1.46
2018-02-24T05:26:14.086Z,-1.21
2018-02-24T05:27:14.100Z,-1.20
2018-02-24T05:28:14.107Z,-0.91
2018-02-24T05:29:14.114Z,-0.78
2018-02-24T05:30:14.125Z,-0.69
2018-02-24T05:31:14.138Z,-0.87
2018-02-24T05:32:14.144Z,-0.89
2018-02-24T05:33:14.153Z,-1.06
2018-02-24T05:34:14.163Z,-1.20
2018-02-24T05:35:14.171Z,-1.02
2018-02-24T05:36:14.182Z,-0.87
2018-02-24T05:37:14.188Z,-1.05
2018-02-24T05:38:14.197Z,-0.94
2018-02-24T05:39:14.208Z,-1.39
2018-02-24T05:40:14.219Z,-1.46
2018-02-24T05:41:14.226Z,-1.67
2018-02-24T05:42:14.234Z,-1.66
2018-02-24T05:43:14.248Z,-1.38
2018-02-24T05:44:14.257Z,-1.42
2018-02-24T05:45:14.260Z,-1.70
2018-02-24T05:46:14.272Z,-1.48
2018-02-24T05:47:14.282Z,-1.45
2018-02-24T05:48:14.290Z,-1.35
2018-02-24T05:49:14.306Z,-1.25
2018-02-24T05:50:14.318Z,-0.92
2018-02-24T05:51:14.319Z,-1.07
2018-02-24T05:52:14.332Z,-1.06
2018-02-24T05:53:14.342Z,-1.23
2018-02-24T05:54:14.344Z,-1.28
2018-02-24T05:55:14.367Z,-1.42
2018-02-24T05:56:14.365Z,-1.18
2018-02-24T05:57:14.369Z,-1.09
2018-02-24T05:58:14.381Z,-0.97
2018-02-24T05:59:14.476Z,-1.38
2018-02-24T06:00:14.399Z,-1.46
2018-02-24T06:01:14.404Z,-1.46
2018-02-24T06:02:14.417Z,-1.77
2018-02-24T06:03:14.428Z,-1.39
2018-02-24T06:04:14.436Z,-1.09
2018-02-24T06:05:14.499Z,-1.57
2018-02-24T06:06:14.453Z,-1.25
2018-02-24T06:07:14.462Z,-1.56
2018-02-24T06:08:14.473Z,-1.35
2018-02-24T06:09:14.486Z,-1.38
2018-02-24T06:10:14.495Z,-1.42
2018-02-24T06:11:14.501Z,-1.20
2018-02-24T06:12:14.507Z,-1.39
2018-02-24T06:13:14.516Z,-1.48
2018-02-24T06:14:14.546Z,-1.77
2018-02-24T06:15:14.534Z,-1.66
2018-02-24T06:16:14.553Z,-1.13
2018-02-24T06:17:14.600Z,-1.25
2018-02-24T06:18:14.577Z,-1.43
2018-02-24T06:19:14.577Z,-1.28
2018-02-24T06:20:14.587Z,-1.43
2018-02-24T06:21:14.641Z,-1.78
2018-02-24T06:22:14.602Z,-1.87
2018-02-24T06:23:14.608Z,-2.05
2018-02-24T06:24:14.614Z,-1.49
2018-02-24T06:25:14.669Z,-1.57
2018-02-24T06:26:14.657Z,-1.69
2018-02-24T06:27:14.634Z,-1.69
2018-02-24T06:28:14.644Z,-1.45
2018-02-24T06:29:14.658Z,-1.48
2018-02-24T06:30:14.664Z,-1.66
2018-02-24T06:31:14.677Z,-1.63
2018-02-24T06:32:14.686Z,-1.39
2018-02-24T06:33:14.693Z,-1.28
2018-02-24T06:34:14.732Z,-1.43
2018-02-24T06:35:14.713Z,-1.42
2018-02-24T06:36:14.725Z,-1.48
2018-02-24T06:37:14.731Z,-1.59
2018-02-24T06:38:14.737Z,-1.75
2018-02-24T06:39:14.753Z,-1.56
2018-02-24T06:40:14.766Z,-1.49
2018-02-24T06:41:14.765Z,-1.57
2018-02-24T06:42:14.773Z,-1.45
2018-02-24T06:43:14.782Z,-1.54
2018-02-24T06:44:14.798Z,-1.46
2018-02-24T06:45:14.828Z,-1.48
2018-02-24T06:46:14.811Z,-1.39
2018-02-24T06:47:14.837Z,-1.38
2018-02-24T06:48:14.847Z,-1.41
2018-02-24T06:49:14.840Z,-1.24
2018-02-24T06:50:14.849Z,-1.31
2018-02-24T06:51:14.866Z,-1.51
2018-02-24T06:52:14.867Z,-1.36
2018-02-24T06:53:14.870Z,-0.99
2018-02-24T06:54:14.886Z,-1.18
2018-02-24T06:55:14.898Z,-1.54
2018-02-24T06:56:14.903Z,-1.72
2018-02-24T06:57:14.911Z,-1.70
2018-02-24T06:58:14.921Z,-1.78
2018-02-24T06:59:14.934Z,-1.67
2018-02-24T07:00:14.942Z,-1.46
2018-02-24T07:01:14.949Z,-1.63
2018-02-24T07:02:14.956Z,-1.48
2018-02-24T07:03:14.972Z,-1.49
2018-02-24T07:04:14.975Z,-1.28
2018-02-24T07:05:15.000Z,-1.48
2018-02-24T07:06:15.024Z,-1.48
2018-02-24T07:07:15.000Z,-1.59
2018-02-24T07:08:15.015Z,-1.20
2018-02-24T07:09:15.025Z,-0.94
2018-02-24T07:10:15.033Z,-1.00
2018-02-24T07:11:15.036Z,-1.41
2018-02-24T07:12:15.046Z,-1.18
2018-02-24T07:13:15.069Z,-1.43
2018-02-24T07:14:15.062Z,-1.43
2018-02-24T07:15:15.082Z,-1.49
2018-02-24T07:16:15.088Z,-1.23
2018-02-24T07:17:15.089Z,-0.89
2018-02-24T07:18:15.107Z,-1.38
2018-02-24T07:19:15.103Z,-1.28
2018-02-24T07:20:15.119Z,-1.62
2018-02-24T07:21:15.147Z,-1.41
2018-02-24T07:22:15.135Z,-1.45
2018-02-24T07:23:15.149Z,-1.20
2018-02-24T07:24:15.209Z,-1.30
2018-02-24T07:25:15.167Z,-1.20
2018-02-24T07:26:15.172Z,-1.35
2018-02-24T07:27:15.190Z,-1.41
2018-02-24T07:28:15.194Z,-1.30
2018-02-24T07:29:15.215Z,-1.23
2018-02-24T07:30:15.210Z,-1.48
2018-02-24T07:31:15.217Z,-1.36
2018-02-24T07:32:15.228Z,-1.49
2018-02-24T07:33:15.235Z,-1.39
2018-02-24T07:34:15.266Z,-1.30
2018-02-24T07:35:15.253Z,-1.41
2018-02-24T07:36:15.263Z,-1.42
2018-02-24T07:37:15.287Z,-1.45
2018-02-24T07:38:15.278Z,-1.56
2018-02-24T07:39:15.286Z,-1.09
2018-02-24T07:40:15.300Z,-0.97
2018-02-24T07:41:15.310Z,-1.41
2018-02-24T07:42:15.374Z,-1.21
2018-02-24T07:43:15.324Z,-1.20
2018-02-24T07:44:15.333Z,-0.86
2018-02-24T07:45:15.361Z,-1.03
2018-02-24T07:46:15.350Z,-1.02
2018-02-24T07:47:15.362Z,-0.60
2018-02-24T07:48:15.369Z,-1.05
2018-02-24T07:49:15.378Z,-1.07
2018-02-24T07:50:15.385Z,-0.92
2018-02-24T07:51:15.398Z,-1.02
2018-02-24T07:52:15.406Z,-0.84
2018-02-24T07:53:15.412Z,-1.24
2018-02-24T07:54:15.422Z,-1.20
2018-02-24T07:55:15.433Z,-1.20
2018-02-24T07:56:15.445Z,-0.89
2018-02-24T07:57:15.444Z,-0.77
2018-02-24T07:58:15.469Z,-0.80
2018-02-24T07:59:15.473Z,-1.05
2018-02-24T08:00:15.481Z,-1.02
2018-02-24T08:01:15.486Z,-0.97
2018-02-24T08:02:15.493Z,-1.06
2018-02-24T08:03:15.500Z,-1.12
2018-02-24T08:04:15.511Z,-0.95
2018-02-24T08:05:15.520Z,-0.94
2018-02-24T08:06:15.529Z,-0.99
2018-02-24T08:07:15.536Z,-1.02
2018-02-24T08:08:15.549Z,-0.95
2018-02-24T08:09:15.556Z,-1.12
2018-02-24T08:10:15.587Z,-0.97
2018-02-24T08:11:15.571Z,-0.99
2018-02-24T08:12:15.587Z,-0.83
2018-02-24T08:13:15.599Z,-0.69
2018-02-24T08:14:15.615Z,-0.59
2018-02-24T08:15:15.620Z,-0.47
2018-02-24T08:16:15.627Z,-0.92
2018-02-24T08:17:15.636Z,-0.63
2018-02-24T08:18:15.654Z,-0.86
2018-02-24T08:19:15.653Z,-0.70
2018-02-24T08:20:15.667Z,-0.86
2018-02-24T08:21:15.697Z,-0.83
2018-02-24T08:22:15.707Z,-0.48
2018-02-24T08:23:15.698Z,-0.84
2018-02-24T08:24:15.701Z,-0.84
2018-02-24T08:25:15.711Z,-0.87
2018-02-24T08:26:15.721Z,-0.80
2018-02-24T08:27:15.730Z,-0.73
2018-02-24T08:28:15.736Z,-0.86
2018-02-24T08:29:15.750Z,-0.55
2018-02-24T08:30:15.763Z,-0.62
2018-02-24T08:31:15.770Z,-0.73
2018-02-24T08:32:15.787Z,-0.70
2018-02-24T08:33:15.786Z,-0.36
2018-02-24T08:34:15.796Z,-0.29
2018-02-24T08:35:15.806Z,-0.66
2018-02-24T08:36:15.816Z,-0.45
2018-02-24T08:37:15.825Z,-0.15
2018-02-24T08:38:15.837Z,-0.04
2018-02-24T08:39:15.849Z,-0.06
2018-02-24T08:40:15.855Z,0.10
2018-02-24T08:41:15.868Z,-0.01
2018-02-24T08:42:15.869Z,-0.18
2018-02-24T08:43:15.880Z,-0.19
2018-02-24T08:44:15.891Z,0.00
2018-02-24T08:45:15.908Z,-0.22
2018-02-24T08:46:15.917Z,-0.18
2018-02-24T08:47:15.922Z,-0.13
2018-02-24T08:48:15.934Z,-0.15
2018-02-24T08:49:15.948Z,-0.15
2018-02-24T08:50:15.955Z,-0.05
2018-02-24T08:51:16.022Z,0.10
2018-02-24T08:52:15.977Z,-0.16
2018-02-24T08:53:15.982Z,0.15
2018-02-24T08:54:15.995Z,0.02
2018-02-24T08:55:16.021Z,-0.05
2018-02-24T08:56:16.017Z,0.27
2018-02-24T08:57:16.022Z,0.38
2018-02-24T08:58:16.037Z,0.67
2018-02-24T08:59:16.041Z,0.39
2018-02-24T09:00:16.055Z,0.41
2018-02-24T09:01:16.062Z,0.48
2018-02-24T09:02:16.102Z,0.75
2018-02-24T09:03:16.096Z,0.58
2018-02-24T09:04:16.096Z,0.72
2018-02-24T09:05:16.143Z,0.71
2018-02-24T09:06:16.115Z,0.67
2018-02-24T09:07:16.130Z,0.60
2018-02-24T09:08:16.135Z,0.64
2018-02-24T09:09:16.145Z,0.71
2018-02-24T09:10:16.158Z,0.64
2018-02-24T09:11:16.167Z,1.06
2018-02-24T09:12:16.182Z,0.71
2018-02-24T09:13:16.188Z,0.70
2018-02-24T09:14:16.198Z,0.76
2018-02-24T09:15:16.208Z,0.83
2018-02-24T09:16:16.236Z,0.78
2018-02-24T09:17:16.224Z,0.72
2018-02-24T09:18:16.240Z,0.76
2018-02-24T09:19:16.245Z,0.89
2018-02-24T09:20:16.263Z,0.72
2018-02-24T09:21:16.270Z,0.96
2018-02-24T09:22:16.286Z,0.83
2018-02-24T09:23:16.294Z,0.83
2018-02-24T09:24:16.307Z,0.82
2018-02-24T09:25:16.341Z,0.97
2018-02-24T09:26:16.327Z,0.83
2018-02-24T09:27:16.332Z,0.92
2018-02-24T09:28:16.348Z,0.96
2018-02-24T09:29:16.356Z,0.98
2018-02-24T09:30:16.361Z,0.85
2018-02-24T09:31:16.378Z,1.04
2018-02-24T09:32:16.393Z,1.06
2018-02-24T09:33:16.404Z,1.00
2018-02-24T09:34:16.410Z,1.19
2018-02-24T09:35:16.420Z,1.14
2018-02-24T09:36:16.443Z,1.19
2018-02-24T09:37:16.444Z,1.28
2018-02-24T09:38:16.451Z,1.28
2018-02-24T09:39:16.464Z,1.08
2018-02-24T09:40:16.480Z,1.03
2018-02-24T09:41:16.480Z,1.12
2018-02-24T09:42:16.502Z,1.22
2018-02-24T09:43:16.507Z,1.32
2018-02-24T09:44:16.520Z,1.39
2018-02-24T09:45:16.532Z,1.22
2018-02-24T09:46:16.593Z,1.16
2018-02-24T09:47:16.556Z,0.97
2018-02-24T09:48:16.567Z,1.25
2018-02-24T09:49:16.591Z,1.46
2018-02-24T09:50:16.587Z,1.51
2018-02-24T09:51:16.597Z,1.58
2018-02-24T09:52:16.606Z,1.36
2018-02-24T09:53:16.661Z,1.40
2018-02-24T09:54:16.623Z,1.28
2018-02-24T09:55:16.644Z,1.34
2018-02-24T09:56:16.652Z,1.32
2018-02-24T09:57:16.660Z,1.54
2018-02-24T09:58:16.674Z,1.57
2018-02-24T09:59:16.716Z,1.28
2018-02-24T10:00:16.692Z,1.57
2018-02-24T10:01:16.726Z,1.60
2018-02-24T10:02:16.715Z,1.50
2018-02-24T10:03:16.732Z,1.50
2018-02-24T10:04:16.743Z,1.60
2018-02-24T10:05:16.751Z,1.65
2018-02-24T10:06:16.754Z,1.68
2018-02-24T10:07:16.772Z,1.60
2018-02-24T10:08:16.841Z,1.79
2018-02-24T10:09:16.792Z,1.87
2018-02-24T10:10:16.805Z,2.12
2018-02-24T10:11:16.845Z,2.37
2018-02-24T10:12:16.830Z,2.28
2018-02-24T10:13:16.840Z,2.17
2018-02-24T10:14:16.854Z,2.13
2018-02-24T10:15:16.860Z,2.15
2018-02-24T10:16:16.879Z,2.09
2018-02-24T10:17:16.880Z,2.02
2018-02-24T10:18:16.908Z,1.90
2018-02-24T10:19:16.908Z,1.93
2018-02-24T10:20:16.916Z,1.98
2018-02-24T10:21:16.928Z,2.15
2018-02-24T10:22:16.942Z,2.09
2018-02-24T10:23:17.003Z,1.97
2018-02-24T10:24:16.963Z,2.08
2018-02-24T10:25:16.972Z,2.38
2018-02-24T10:26:17.015Z,2.22
2018-02-24T10:27:17.000Z,2.09
2018-02-24T10:28:17.007Z,2.23
2018-02-24T10:29:17.016Z,2.23
2018-02-24T10:30:17.035Z,2.34
2018-02-24T10:31:17.051Z,2.19
2018-02-24T10:32:17.055Z,2.38
2018-02-24T10:33:17.070Z,2.38
2018-02-24T10:34:17.079Z,2.34
2018-02-24T10:35:17.093Z,2.38
2018-02-24T10:36:17.105Z,2.30
2018-02-24T10:37:17.201Z,2.19
2018-02-24T10:38:17.129Z,2.35
2018-02-24T10:39:17.135Z,2.44
2018-02-24T10:40:17.149Z,2.48
2018-02-24T10:41:17.160Z,2.61
2018-02-24T10:42:17.173Z,2.61
2018-02-24T10:43:17.186Z,2.88
2018-02-24T10:44:17.197Z,2.84
2018-02-24T10:45:17.210Z,2.71
2018-02-24T10:46:17.216Z,2.70
2018-02-24T10:47:17.231Z,2.81
2018-02-24T10:48:17.244Z,2.74
2018-02-24T10:49:17.256Z,2.82
2018-02-24T10:50:17.268Z,2.69
2018-02-24T10:51:17.280Z,2.81
2018-02-24T10:52:17.310Z,2.71
2018-02-24T10:53:17.309Z,2.74
2018-02-24T10:54:17.309Z,2.69
2018-02-24T10:55:17.327Z,2.71
2018-02-24T10:56:17.340Z,2.61
2018-02-24T10:57:17.349Z,2.66
2018-02-24T10:58:17.359Z,2.73
2018-02-24T10:59:17.380Z,2.84
2018-02-24T11:00:17.387Z,3.00
2018-02-24T11:01:17.394Z,2.85
2018-02-24T11:02:17.404Z,2.84
2018-02-24T11:03:17.425Z,2.98
2018-02-24T11:04:17.439Z,3.10
2018-02-24T11:05:17.446Z,3.07
2018-02-24T11:06:17.461Z,3.02
2018-02-24T11:07:17.480Z,3.18
2018-02-24T11:08:17.484Z,3.15
2018-02-24T11:09:17.501Z,3.23
2018-02-24T11:10:17.509Z,3.39
2018-02-24T11:11:17.550Z,3.07
2018-02-24T11:12:17.532Z,3.05
2018-02-24T11:13:17.546Z,3.07
2018-02-24T11:14:17.558Z,3.20
2018-02-24T11:15:17.575Z,3.16
2018-02-24T11:16:17.581Z,3.12
2018-02-24T11:17:17.593Z,3.30
2018-02-24T11:18:17.609Z,3.36
2018-02-24T11:19:17.626Z,3.27
2018-02-24T11:20:17.676Z,3.44
2018-02-24T11:21:17.677Z,3.44
2018-02-24T11:22:17.666Z,3.34
2018-02-24T11:23:17.706Z,3.44
2018-02-24T11:24:17.730Z,3.53
2018-02-24T11:25:17.710Z,3.43
2018-02-24T11:26:17.723Z,3.62
2018-02-24T11:27:17.718Z,3.61
2018-02-24T11:28:17.732Z,3.57
2018-02-24T11:29:17.742Z,3.65
2018-02-24T11:30:17.749Z,3.71
2018-02-24T11:31:17.803Z,3.65
2018-02-24T11:32:17.781Z,3.67
2018-02-24T11:33:17.789Z,3.80
2018-02-24T11:34:17.809Z,3.67
2018-02-24T11:35:17.820Z,3.75
2018-02-24T11:36:17.832Z,3.68
2018-02-24T11:37:17.856Z,3.68
2018-02-24T11:38:17.858Z,3.89
2018-02-24T11:39:17.868Z,4.00
2018-02-24T11:40:17.882Z,3.96
2018-02-24T11:41:17.898Z,4.01
2018-02-24T11:42:17.901Z,4.03
2018-02-24T11:43:17.921Z,3.98
2018-02-24T11:44:17.938Z,4.04
2018-02-24T11:45:17.944Z,4.04
2018-02-24T11:46:17.967Z,4.14
2018-02-24T11:47:17.971Z,4.08
2018-02-24T11:48:17.982Z,4.08
2018-02-24T11:49:17.996Z,4.21
2018-02-24T11:50:18.012Z,4.37
2018-02-24T11:51:18.043Z,4.52
2018-02-24T11:52:18.036Z,4.55
2018-02-24T11:53:18.049Z,4.43
2018-02-24T11:54:18.064Z,4.32
2018-02-24T11:55:18.073Z,4.37
2018-02-24T11:56:18.084Z,4.59
2018-02-24T11:57:18.110Z,4.65
2018-02-24T11:58:18.112Z,4.64
2018-02-24T11:59:18.144Z,4.55
2018-02-24T12:00:18.150Z,4.58
2018-02-24T12:01:18.160Z,4.76
2018-02-24T12:02:18.165Z,4.76
2018-02-24T12:03:18.178Z,4.92
2018-02-24T12:04:18.197Z,4.77
2018-02-24T12:05:18.205Z,4.77
2018-02-24T12:06:18.222Z,4.88
2018-02-24T12:07:18.232Z,4.84
2018-02-24T12:08:18.262Z,4.79
2018-02-24T12:09:18.260Z,4.75
2018-02-24T12:10:18.271Z,4.80
2018-02-24T12:11:18.280Z,4.99
2018-02-24T12:12:18.302Z,5.25
2018-02-24T12:13:18.312Z,5.13
2018-02-24T12:14:18.330Z,5.31
2018-02-24T12:15:18.344Z,5.37
2018-02-24T12:16:18.354Z,5.05
2018-02-24T12:17:18.408Z,5.14
2018-02-24T12:18:18.376Z,5.13
2018-02-24T12:19:18.411Z,5.07
2018-02-24T12:20:18.406Z,5.16
2018-02-24T12:21:18.417Z,5.22
2018-02-24T12:22:18.432Z,5.37
2018-02-24T12:23:18.462Z,5.60
2018-02-24T12:24:18.469Z,5.31
2018-02-24T12:25:18.480Z,5.31
2018-02-24T12:26:18.540Z,5.35
2018-02-24T12:27:18.508Z,5.43
2018-02-24T12:28:18.544Z,5.73
2018-02-24T12:29:18.587Z,5.53
2018-02-24T12:30:18.553Z,5.64
2018-02-24T12:31:18.571Z,5.71
2018-02-24T12:32:18.583Z,5.68
2018-02-24T12:33:18.588Z,5.82
2018-02-24T12:34:18.615Z,5.68
2018-02-24T12:35:18.621Z,5.75
2018-02-24T12:36:18.628Z,5.91
2018-02-24T12:37:18.657Z,5.86
2018-02-24T12:38:18.725Z,5.75
2018-02-24T12:39:18.681Z,6.11
2018-02-24T12:40:18.691Z,5.86
2018-02-24T12:41:18.717Z,6.00
2018-02-24T12:42:18.734Z,5.86
2018-02-24T12:43:18.756Z,6.18
2018-02-24T12:44:18.775Z,6.36
2018-02-24T12:45:18.772Z,6.19
2018-02-24T12:46:18.778Z,5.93
2018-02-24T12:47:18.796Z,6.36
2018-02-24T12:48:18.812Z,6.16
2018-02-24T12:49:18.827Z,6.29
2018-02-24T12:50:18.846Z,6.33
2018-02-24T12:51:18.854Z,6.61
